Time;durP1;ratioP1;P1;durP2;ratioP2;P2;SDS_P1;SDS_P2;PMS_P1;PMS_P2;Temp;Humidity;BMP_temperature;BMP_pressure;BME280_temperature;BME280_humidity;BME280_pressure;Samples;Min_cycle;Max_cycle;Signal;HPM_P1;HPM_P2
2022/08/12 00:44:37;;;;;;;1.92;1.77;;;;;;;;;;5016116;28;20271;-40
2022/08/12 00:47:05;;;;;;;2.38;1.60;;;;;;;;;;4996439;28;20232;-44
2022/08/12 00:49:33;;;;;;;2.00;1.90;;;;;;;;;;5007775;28;20209;-47
2022/08/12 00:52:08;;;;;;;3.10;1.90;;;;;;;;;;4993085;28;20208;-44
2022/08/12 00:54:36;;;;;;;1.90;1.80;;;;;;;;;;5000892;28;20218;-43
2022/08/12 00:57:05;;;;;;;1.87;1.77;;;;;;;;;;4993081;28;20220;-45
2022/08/12 00:59:32;;;;;;;2.10;2.00;;;;;;;;;;4991952;28;20208;-41
2022/08/12 01:02:01;;;;;;;4.47;1.83;;;;;;;;;;4992466;28;20231;-40
2022/08/12 01:12:46;;;;;;;2.10;2.00;;;;;;;;;;4996622;28;20237;-37
2022/08/12 01:15:14;;;;;;;5.05;2.28;;;;;;;;;;4993972;28;20238;-39
2022/08/12 01:17:42;;;;;;;2.03;1.70;;;;;;;;;;5005190;28;20249;-42
2022/08/12 01:20:14;;;;;;;1.90;1.80;;;;;;;;;;5001683;28;20658;-47
2022/08/12 01:22:46;;;;;;;3.30;2.25;;;;;;;;;;5003080;28;20713;-40
2022/08/12 01:25:17;;;;;;;1.57;1.57;;;;;;;;;;5000454;28;20207;-46
2022/08/12 01:27:44;;;;;;;1.83;1.70;;;;;;;;;;5007315;28;20227;-43
2022/08/12 01:30:13;;;;;;;3.90;1.98;;;;;;;;;;5006276;28;20207;-45
2022/08/12 01:32:47;;;;;;;2.00;1.90;;;;;;;;;;5008366;28;20250;-44
2022/08/12 01:35:16;;;;;;;2.70;1.98;;;;;;;;;;5000731;28;20200;-39
2022/08/12 01:37:46;;;;;;;2.13;1.93;;;;;;;;;;4999384;28;20273;-41
2022/08/12 01:40:16;;;;;;;2.20;1.98;;;;;;;;;;5003104;28;20753;-46
2022/08/12 01:42:46;;;;;;;1.93;1.83;;;;;;;;;;4996531;28;20227;-43
2022/08/12 01:45:13;;;;;;;2.42;1.80;;;;;;;;;;4993047;28;20211;-37
2022/08/12 01:47:49;;;;;;;3.00;2.03;;;;;;;;;;5008132;28;20231;-39
2022/08/12 01:50:21;;;;;;;2.70;2.00;;;;;;;;;;4991879;28;20204;-41
2022/08/12 01:53:04;;;;;;;2.50;1.90;;;;;;;;;;4994499;28;20207;-44
2022/08/12 01:55:36;;;;;;;1.80;1.70;;;;;;;;;;4999634;28;20212;-46
2022/08/12 01:58:20;;;;;;;2.17;1.73;;;;;;;;;;5009119;28;20227;-44
2022/08/12 02:00:57;;;;;;;2.47;1.90;;;;;;;;;;5007574;28;20216;-40
2022/08/12 02:14:31;;;;;;;2.97;2.03;;;;;;;;;;5028753;28;20229;-44
2022/08/12 02:17:16;;;;;;;2.65;1.73;;;;;;;;;;5031362;28;20214;-41
2022/08/12 02:19:48;;;;;;;4.40;1.97;;;;;;;;;;5019591;28;20203;-36
2022/08/12 02:22:27;;;;;;;2.20;1.83;;;;;;;;;;5020074;28;20295;-41
2022/08/12 02:24:57;;;;;;;2.23;2.10;;;;;;;;;;5029694;28;20272;-41
2022/08/12 02:27:27;;;;;;;2.33;2.03;;;;;;;;;;5031210;28;20214;-42
2022/08/12 02:29:56;;;;;;;1.90;1.80;;;;;;;;;;5030062;28;20301;-45
2022/08/12 02:32:23;;;;;;;2.23;2.03;;;;;;;;;;5012035;28;20205;-41
2022/08/12 02:34:50;;;;;;;2.13;1.83;;;;;;;;;;5018497;28;20213;-43
2022/08/12 02:37:18;;;;;;;2.07;1.87;;;;;;;;;;5023011;28;20269;-39
2022/08/12 02:39:48;;;;;;;2.27;2.00;;;;;;;;;;5022589;28;20214;-39
2022/08/12 02:42:16;;;;;;;1.97;1.87;;;;;;;;;;5031420;28;20218;-43
2022/08/12 02:44:45;;;;;;;2.40;1.97;;;;;;;;;;5032249;28;20216;-44
2022/08/12 02:47:15;;;;;;;1.80;1.70;;;;;;;;;;5028510;28;20226;-43
2022/08/12 02:49:44;;;;;;;3.17;1.87;;;;;;;;;;5026006;28;20198;-43
2022/08/12 02:52:13;;;;;;;2.10;1.83;;;;;;;;;;5018967;28;20203;-41
2022/08/12 02:54:42;;;;;;;2.00;1.90;;;;;;;;;;5029785;28;20568;-37
2022/08/12 02:57:12;;;;;;;2.00;1.80;;;;;;;;;;5030242;28;20280;-42
2022/08/12 02:59:40;;;;;;;2.27;2.07;;;;;;;;;;5028197;28;20202;-42
2022/08/12 03:02:11;;;;;;;1.80;1.70;;;;;;;;;;5025528;28;20320;-43
2022/08/12 03:04:43;;;;;;;2.00;1.90;;;;;;;;;;5029531;28;20242;-41
2022/08/12 03:07:13;;;;;;;4.57;1.77;;;;;;;;;;5019007;28;20281;-46
2022/08/12 03:09:45;;;;;;;2.10;1.93;;;;;;;;;;5029449;28;20213;-40
2022/08/12 03:12:13;;;;;;;1.93;1.73;;;;;;;;;;5029389;28;20210;-42
2022/08/12 03:14:43;;;;;;;2.20;2.00;;;;;;;;;;5030237;28;20202;-43
2022/08/12 03:17:12;;;;;;;1.77;1.67;;;;;;;;;;5018208;28;20604;-43
2022/08/12 03:19:42;;;;;;;2.10;1.90;;;;;;;;;;5024311;28;20213;-44
2022/08/12 03:22:13;;;;;;;2.17;2.07;;;;;;;;;;5018154;28;20227;-42
2022/08/12 03:24:42;;;;;;;3.93;2.10;;;;;;;;;;5021395;28;20580;-45
2022/08/12 03:27:10;;;;;;;2.40;1.90;;;;;;;;;;5029920;28;20217;-41
2022/08/12 03:29:37;;;;;;;2.57;1.90;;;;;;;;;;5024557;28;20641;-43
2022/08/12 03:32:05;;;;;;;3.07;2.03;;;;;;;;;;5029088;28;20537;-43
2022/08/12 03:34:34;;;;;;;2.50;2.03;;;;;;;;;;5029583;28;20202;-45
2022/08/12 03:37:03;;;;;;;1.80;1.70;;;;;;;;;;5023659;28;20567;-44
2022/08/12 03:39:40;;;;;;;4.80;2.00;;;;;;;;;;5021245;28;20202;-43
2022/08/12 03:42:15;;;;;;;2.10;2.00;;;;;;;;;;5029973;28;20226;-44
2022/08/12 04:01:22;;;;;;;2.20;2.10;;;;;;;;;;5013276;28;20201;-43
2022/08/12 04:03:52;;;;;;;4.23;2.33;;;;;;;;;;5026289;28;20256;-42
2022/08/12 04:06:20;;;;;;;2.23;2.10;;;;;;;;;;5024622;28;20210;-41
2022/08/12 04:08:49;;;;;;;2.27;2.07;;;;;;;;;;5029304;28;20218;-39
2022/08/12 04:14:08;;;;;;;2.00;1.90;;;;;;;;;;5029504;28;20216;-42
2022/08/12 04:16:35;;;;;;;2.40;2.17;;;;;;;;;;5016734;28;20202;-44
2022/08/12 04:19:03;;;;;;;2.20;2.00;;;;;;;;;;5029288;28;20210;-41
2022/08/12 04:21:31;;;;;;;2.93;2.20;;;;;;;;;;5023480;28;20210;-42
2022/08/12 04:24:00;;;;;;;2.10;1.90;;;;;;;;;;5021237;28;20240;-42
2022/08/12 04:26:28;;;;;;;1.90;1.80;;;;;;;;;;5031178;28;20203;-39
2022/08/12 04:28:57;;;;;;;2.37;1.87;;;;;;;;;;5031737;28;20210;-40
2022/08/12 04:31:30;;;;;;;2.17;1.93;;;;;;;;;;5020719;28;20294;-37
2022/08/12 04:33:58;;;;;;;2.37;2.17;;;;;;;;;;5028676;28;20210;-42
2022/08/12 04:36:25;;;;;;;3.20;2.60;;;;;;;;;;5026955;28;20210;-39
2022/08/12 04:38:52;;;;;;;2.13;2.00;;;;;;;;;;5027579;28;20217;-43
2022/08/12 04:41:21;;;;;;;4.17;2.00;;;;;;;;;;5030770;28;20202;-39
2022/08/12 04:43:48;;;;;;;2.43;2.00;;;;;;;;;;5033991;28;20233;-41
2022/08/12 04:46:15;;;;;;;2.13;1.97;;;;;;;;;;5029468;28;20563;-42
2022/08/12 04:48:43;;;;;;;2.37;2.00;;;;;;;;;;5033376;28;20213;-40
2022/08/12 04:51:10;;;;;;;3.07;2.27;;;;;;;;;;5028377;28;20214;-42
2022/08/12 04:53:38;;;;;;;2.20;2.00;;;;;;;;;;5025689;28;20216;-40
2022/08/12 04:56:05;;;;;;;1.97;1.87;;;;;;;;;;5034282;28;20221;-40
2022/08/12 04:58:35;;;;;;;3.10;2.53;;;;;;;;;;5034627;28;20236;-41
2022/08/12 05:01:02;;;;;;;1.97;1.87;;;;;;;;;;5032426;28;20560;-40
2022/08/12 05:03:30;;;;;;;2.47;2.27;;;;;;;;;;5028397;28;20222;-43
2022/08/12 05:05:57;;;;;;;2.30;2.10;;;;;;;;;;5030571;28;20388;-41
2022/08/12 05:08:25;;;;;;;3.20;1.83;;;;;;;;;;5025401;28;20226;-36
2022/08/12 05:10:53;;;;;;;1.97;1.80;;;;;;;;;;5031842;28;20206;-38
2022/08/12 05:13:21;;;;;;;3.63;2.00;;;;;;;;;;5016478;28;20219;-39
2022/08/12 05:15:50;;;;;;;2.47;2.27;;;;;;;;;;5030136;28;20219;-36
2022/08/12 05:18:17;;;;;;;2.23;2.03;;;;;;;;;;5033890;28;20230;-42
2022/08/12 05:20:44;;;;;;;2.17;1.97;;;;;;;;;;5034136;28;20210;-37
2022/08/12 05:23:12;;;;;;;5.00;2.20;;;;;;;;;;5021314;28;20221;-43
2022/08/12 05:25:41;;;;;;;2.87;2.10;;;;;;;;;;5029240;28;20202;-41
2022/08/12 05:28:09;;;;;;;3.30;2.33;;;;;;;;;;5033932;28;20236;-38
2022/08/12 05:30:36;;;;;;;2.30;2.13;;;;;;;;;;5031258;28;20208;-44
2022/08/12 05:33:06;;;;;;;2.17;1.93;;;;;;;;;;5023892;28;20208;-41
2022/08/12 05:35:35;;;;;;;3.07;2.00;;;;;;;;;;5033536;28;20212;-41
2022/08/12 05:40:47;;;;;;;2.87;2.60;;;;;;;;;;5034102;28;20205;-37
2022/08/12 05:43:14;;;;;;;2.83;2.57;;;;;;;;;;5033464;28;20225;-41
2022/08/12 05:45:42;;;;;;;2.80;2.40;;;;;;;;;;5029345;28;20210;-40
2022/08/12 05:48:10;;;;;;;2.50;2.27;;;;;;;;;;5023180;28;20233;-42
2022/08/12 05:50:37;;;;;;;2.27;2.07;;;;;;;;;;5032039;28;20536;-38
2022/08/12 05:53:05;;;;;;;3.20;2.20;;;;;;;;;;5022188;28;20209;-40
2022/08/12 05:55:33;;;;;;;4.30;2.60;;;;;;;;;;5033157;28;20256;-40
2022/08/12 05:58:01;;;;;;;2.50;2.30;;;;;;;;;;5033025;28;20417;-40
2022/08/12 06:00:30;;;;;;;3.03;2.33;;;;;;;;;;5030261;28;20570;-43
2022/08/12 06:02:59;;;;;;;2.50;2.30;;;;;;;;;;5026442;28;20221;-42
2022/08/12 06:05:28;;;;;;;2.63;2.40;;;;;;;;;;5033202;28;20209;-41
2022/08/12 06:07:55;;;;;;;3.13;2.30;;;;;;;;;;5022182;28;20241;-44
2022/08/12 06:10:23;;;;;;;2.40;2.20;;;;;;;;;;5025420;28;20201;-42
2022/08/12 06:12:50;;;;;;;2.20;2.00;;;;;;;;;;5032514;28;20206;-43
2022/08/12 06:15:18;;;;;;;2.50;2.33;;;;;;;;;;5024911;28;20217;-40
2022/08/12 06:17:45;;;;;;;2.63;2.43;;;;;;;;;;5027676;28;20226;-44
2022/08/12 06:20:14;;;;;;;2.27;1.87;;;;;;;;;;5032105;28;20199;-42
2022/08/12 06:22:42;;;;;;;2.13;2.03;;;;;;;;;;5026825;28;20222;-41
2022/08/12 06:25:09;;;;;;;3.40;2.00;;;;;;;;;;5032493;28;20214;-39
2022/08/12 06:27:42;;;;;;;3.13;1.83;;;;;;;;;;5032730;28;20229;-41
2022/08/12 06:30:10;;;;;;;3.47;2.10;;;;;;;;;;5025163;28;20203;-40
2022/08/12 06:32:38;;;;;;;3.60;2.20;;;;;;;;;;5031031;28;20256;-38
2022/08/12 06:35:06;;;;;;;3.47;2.37;;;;;;;;;;5032293;28;20207;-42
2022/08/12 06:37:38;;;;;;;3.63;2.20;;;;;;;;;;5023259;28;20280;-42
2022/08/12 06:40:08;;;;;;;3.13;1.97;;;;;;;;;;5032164;28;20202;-39
2022/08/12 06:42:47;;;;;;;2.43;2.00;;;;;;;;;;5032492;28;20206;-39
2022/08/12 06:45:14;;;;;;;2.90;1.93;;;;;;;;;;5027078;28;20233;-39
2022/08/12 06:47:41;;;;;;;2.10;1.87;;;;;;;;;;5029125;28;20233;-44
2022/08/12 06:50:10;;;;;;;2.30;1.73;;;;;;;;;;5031737;28;20206;-36
2022/08/12 06:52:37;;;;;;;2.43;1.80;;;;;;;;;;5025395;28;20213;-45
2022/08/12 06:55:04;;;;;;;4.93;2.00;;;;;;;;;;5031872;28;20217;-43
2022/08/12 06:57:32;;;;;;;3.78;1.90;;;;;;;;;;5031367;28;20588;-42
2022/08/12 07:00:00;;;;;;;1.85;1.70;;;;;;;;;;5030902;28;20206;-42
2022/08/12 07:02:27;;;;;;;2.05;1.90;;;;;;;;;;5031400;28;20679;-39
2022/08/12 07:04:54;;;;;;;3.53;1.77;;;;;;;;;;5033524;28;20214;-43
2022/08/12 07:07:21;;;;;;;2.83;1.90;;;;;;;;;;5025190;28;20226;-40
2022/08/12 07:09:49;;;;;;;3.17;1.77;;;;;;;;;;5032830;28;20241;-44
2022/08/12 07:12:18;;;;;;;3.72;1.80;;;;;;;;;;5032917;28;20234;-41
2022/08/12 07:14:50;;;;;;;2.45;1.60;;;;;;;;;;5025610;28;20244;-39
2022/08/12 07:17:17;;;;;;;1.77;1.67;;;;;;;;;;5025684;28;20700;-44
2022/08/12 07:19:45;;;;;;;2.08;1.58;;;;;;;;;;5032202;28;20198;-42
2022/08/12 07:22:13;;;;;;;8.73;1.75;;;;;;;;;;5024502;28;20229;-41
2022/08/12 07:24:41;;;;;;;3.03;2.00;;;;;;;;;;5031592;28;20309;-43
2022/08/12 07:27:08;;;;;;;3.40;1.58;;;;;;;;;;5032044;28;20229;-43
2022/08/12 07:29:35;;;;;;;1.67;1.58;;;;;;;;;;5018993;28;20211;-37
2022/08/12 07:32:04;;;;;;;4.18;1.65;;;;;;;;;;5028214;28;20198;-42
2022/08/12 07:34:31;;;;;;;3.78;1.92;;;;;;;;;;5030920;28;20203;-43
2022/08/12 07:37:00;;;;;;;2.78;1.65;;;;;;;;;;5020486;28;20587;-42
2022/08/12 07:39:28;;;;;;;4.80;1.60;;;;;;;;;;5017355;28;20214;-44
2022/08/12 07:41:56;;;;;;;2.35;1.90;;;;;;;;;;5018164;28;20203;-44
2022/08/12 07:44:24;;;;;;;2.67;1.90;;;;;;;;;;5025918;28;20218;-44
2022/08/12 07:46:51;;;;;;;2.72;1.80;;;;;;;;;;5024358;28;20226;-44
2022/08/12 07:49:23;;;;;;;3.05;1.73;;;;;;;;;;5014452;28;20215;-41
2022/08/12 07:52:07;;;;;;;2.22;1.45;;;;;;;;;;5025384;28;20734;-40
2022/08/12 07:54:35;;;;;;;3.15;1.55;;;;;;;;;;5017528;28;20198;-42
2022/08/12 07:57:05;;;;;;;1.50;1.40;;;;;;;;;;5023850;28;20227;-39
2022/08/12 07:59:34;;;;;;;4.90;1.70;;;;;;;;;;5031560;28;20653;-41
2022/08/12 08:02:02;;;;;;;2.00;1.50;;;;;;;;;;5027409;28;20207;-43
2022/08/12 08:07:15;;;;;;;2.67;1.73;;;;;;;;;;5021497;28;20230;-41
2022/08/12 08:14:57;;;;;;;1.75;1.20;;;;;;;;;;5043427;28;20289;-37
2022/08/12 08:17:24;;;;;;;2.65;1.65;;;;;;;;;;5027064;28;20317;-39
2022/08/12 08:19:54;;;;;;;2.95;1.50;;;;;;;;;;5018097;28;20206;-38
2022/08/12 08:22:21;;;;;;;2.63;1.58;;;;;;;;;;5019609;28;20225;-40
2022/08/12 08:24:55;;;;;;;4.55;1.45;;;;;;;;;;5027313;28;20223;-38
2022/08/12 08:27:22;;;;;;;2.53;1.20;;;;;;;;;;5028600;28;20229;-39
2022/08/12 08:29:49;;;;;;;2.00;1.50;;;;;;;;;;5033702;28;20218;-38
2022/08/12 08:32:16;;;;;;;6.65;1.80;;;;;;;;;;5027543;28;20203;-38
2022/08/12 08:34:44;;;;;;;10.40;1.95;;;;;;;;;;5020654;28;20213;-35
2022/08/12 08:37:14;;;;;;;5.28;1.50;;;;;;;;;;5019627;28;20292;-38
2022/08/12 08:39:41;;;;;;;3.65;1.65;;;;;;;;;;5015953;28;20253;-38
2022/08/12 08:44:54;;;;;;;2.78;1.40;;;;;;;;;;5035469;28;20294;-39
2022/08/12 08:47:21;;;;;;;3.13;1.60;;;;;;;;;;5025677;28;20276;-40
2022/08/12 08:49:48;;;;;;;3.60;1.70;;;;;;;;;;5035501;28;20270;-40
2022/08/12 08:52:23;;;;;;;1.83;1.30;;;;;;;;;;5020992;28;20199;-36
2022/08/12 08:54:50;;;;;;;3.00;1.38;;;;;;;;;;5023437;28;20664;-39
2022/08/12 08:57:17;;;;;;;1.50;1.40;;;;;;;;;;5027091;28;20227;-39
2022/08/12 08:59:44;;;;;;;2.75;1.50;;;;;;;;;;5030870;28;20203;-34
2022/08/12 09:02:11;;;;;;;1.58;1.48;;;;;;;;;;5015760;28;20211;-34
2022/08/12 09:04:39;;;;;;;1.15;1.15;;;;;;;;;;5026406;28;20277;-36
2022/08/12 09:07:06;;;;;;;1.90;1.40;;;;;;;;;;5028652;28;20226;-38
2022/08/12 09:09:36;;;;;;;7.55;1.60;;;;;;;;;;5028332;28;20206;-38
2022/08/12 09:14:48;;;;;;;1.38;1.30;;;;;;;;;;5022124;28;20205;-39
2022/08/12 09:17:17;;;;;;;4.93;1.88;;;;;;;;;;5015413;28;20214;-34
2022/08/12 09:19:44;;;;;;;2.13;1.50;;;;;;;;;;5029374;28;20210;-37
2022/08/12 09:22:11;;;;;;;3.15;1.50;;;;;;;;;;5028601;28;20207;-35
2022/08/12 09:24:40;;;;;;;1.85;1.35;;;;;;;;;;5033936;28;20230;-41
2022/08/12 09:27:07;;;;;;;1.80;1.52;;;;;;;;;;5016484;28;20245;-37
2022/08/12 09:29:34;;;;;;;1.63;1.52;;;;;;;;;;5017224;28;20234;-34
2022/08/12 09:32:05;;;;;;;1.40;1.30;;;;;;;;;;5014484;28;20213;-36
2022/08/12 09:34:33;;;;;;;1.90;1.50;;;;;;;;;;5014870;28;20192;-33
2022/08/12 09:37:01;;;;;;;2.67;1.45;;;;;;;;;;5016931;28;20230;-40
2022/08/12 09:39:28;;;;;;;3.85;1.48;;;;;;;;;;5026166;28;20210;-39
2022/08/12 09:47:44;;;;;;;1.60;1.50;;;;;;;;;;4983417;28;20313;-41
2022/08/12 09:50:11;;;;;;;2.90;1.58;;;;;;;;;;5014583;28;20234;-37
2022/08/12 09:52:38;;;;;;;2.38;1.60;;;;;;;;;;5027770;28;20210;-36
2022/08/12 09:55:08;;;;;;;2.13;1.23;;;;;;;;;;5032969;28;20300;-38
2022/08/12 09:57:36;;;;;;;3.45;1.10;;;;;;;;;;5017180;28;20227;-33
2022/08/12 10:00:04;;;;;;;2.70;1.30;;;;;;;;;;5012184;28;20570;-40
2022/08/12 10:02:37;;;;;;;1.70;1.30;;;;;;;;;;5026817;28;20246;-35
2022/08/12 10:05:05;;;;;;;1.50;1.33;;;;;;;;;;5014164;28;20215;-36
2022/08/12 10:07:32;;;;;;;2.40;1.40;;;;;;;;;;5025500;28;20226;-35
2022/08/12 10:09:59;;;;;;;2.38;1.60;;;;;;;;;;5017683;28;20214;-34
2022/08/12 10:15:13;;;;;;;2.15;1.40;;;;;;;;;;5021807;28;20217;-40
2022/08/12 10:17:40;;;;;;;1.58;1.25;;;;;;;;;;5017763;28;20222;-40
2022/08/12 10:20:07;;;;;;;2.03;1.27;;;;;;;;;;5030756;28;20202;-36
2022/08/12 10:22:35;;;;;;;2.38;1.10;;;;;;;;;;5024832;28;20214;-37
2022/08/12 10:30:34;;;;;;;1.50;1.40;;;;;;;;;;5021558;28;20327;-40
2022/08/12 10:33:01;;;;;;;1.55;1.45;;;;;;;;;;5032520;28;20225;-37
2022/08/12 10:35:31;;;;;;;2.35;1.30;;;;;;;;;;5033536;28;20214;-40
2022/08/12 10:38:00;;;;;;;1.27;1.17;;;;;;;;;;5021042;28;20587;-40
2022/08/12 10:40:28;;;;;;;2.40;1.52;;;;;;;;;;5023571;28;20302;-37
2022/08/12 10:45:41;;;;;;;1.52;1.30;;;;;;;;;;5025874;28;20367;-41
2022/08/12 10:48:08;;;;;;;3.17;1.50;;;;;;;;;;5014721;28;20231;-37
2022/08/12 10:50:36;;;;;;;2.30;1.30;;;;;;;;;;5019471;28;20213;-37
2022/08/12 10:53:07;;;;;;;4.05;1.40;;;;;;;;;;5020082;28;20237;-40
2022/08/12 10:55:34;;;;;;;2.75;1.30;;;;;;;;;;5019363;28;20201;-40
2022/08/12 10:58:01;;;;;;;2.15;1.40;;;;;;;;;;5021773;28;20232;-41
2022/08/12 11:00:29;;;;;;;1.27;1.17;;;;;;;;;;5023459;28;20214;-35
2022/08/12 11:02:57;;;;;;;8.35;1.38;;;;;;;;;;5022688;28;20296;-34
2022/08/12 11:05:25;;;;;;;2.92;1.40;;;;;;;;;;5024549;28;20222;-34
2022/08/12 11:07:53;;;;;;;2.67;1.25;;;;;;;;;;5023020;28;20229;-38
2022/08/12 11:10:20;;;;;;;1.35;1.23;;;;;;;;;;5016226;28;20213;-37
2022/08/12 11:12:49;;;;;;;1.45;1.20;;;;;;;;;;5032644;28;20417;-36
2022/08/12 11:15:16;;;;;;;3.67;1.73;;;;;;;;;;5028513;28;20201;-40
2022/08/12 11:17:43;;;;;;;1.35;1.23;;;;;;;;;;5017679;28;20240;-37
2022/08/12 11:20:12;;;;;;;1.50;1.40;;;;;;;;;;5012838;28;20202;-39
2022/08/12 11:22:39;;;;;;;2.92;1.35;;;;;;;;;;5026086;28;20219;-39
2022/08/12 11:25:08;;;;;;;1.48;1.33;;;;;;;;;;5030605;28;20229;-37
2022/08/12 11:27:36;;;;;;;1.73;1.30;;;;;;;;;;5027372;28;20225;-39
2022/08/12 11:30:03;;;;;;;3.08;1.52;;;;;;;;;;5030408;28;20209;-42
2022/08/12 11:32:30;;;;;;;1.35;1.20;;;;;;;;;;5014644;28;20236;-40
2022/08/12 11:34:57;;;;;;;1.83;1.27;;;;;;;;;;5029760;28;20207;-34
2022/08/12 11:37:26;;;;;;;1.13;1.02;;;;;;;;;;5030564;28;20231;-40
2022/08/12 11:39:53;;;;;;;1.20;1.10;;;;;;;;;;5023926;28;20208;-39
2022/08/12 11:42:20;;;;;;;1.67;1.38;;;;;;;;;;5024501;28;20214;-33
2022/08/12 11:44:47;;;;;;;2.80;1.50;;;;;;;;;;5029505;28;20221;-35
2022/08/12 11:47:14;;;;;;;1.33;1.23;;;;;;;;;;5033249;28;20229;-36
2022/08/12 11:49:41;;;;;;;2.63;1.60;;;;;;;;;;5021665;28;20207;-40
2022/08/12 11:52:08;;;;;;;2.47;1.40;;;;;;;;;;5021490;28;20213;-39
2022/08/12 11:54:37;;;;;;;1.42;1.40;;;;;;;;;;5022649;28;20210;-38
2022/08/12 11:57:05;;;;;;;1.70;1.60;;;;;;;;;;5016440;28;20233;-38
2022/08/12 11:59:33;;;;;;;1.60;1.50;;;;;;;;;;5016220;28;20221;-39
2022/08/12 12:02:00;;;;;;;2.13;1.58;;;;;;;;;;5019999;28;20205;-37
2022/08/12 12:04:27;;;;;;;1.35;1.27;;;;;;;;;;5019429;28;20221;-42
2022/08/12 12:06:54;;;;;;;1.40;1.30;;;;;;;;;;5024754;28;20236;-39
2022/08/12 12:09:21;;;;;;;1.35;1.25;;;;;;;;;;5030541;28;20214;-40
2022/08/12 12:11:49;;;;;;;1.45;1.30;;;;;;;;;;5021432;28;20217;-36
2022/08/12 12:14:17;;;;;;;1.33;1.23;;;;;;;;;;5034126;28;20212;-40
2022/08/12 12:16:44;;;;;;;4.57;1.50;;;;;;;;;;5015067;28;20233;-39
2022/08/12 12:19:11;;;;;;;2.55;1.42;;;;;;;;;;5033710;28;20213;-39
2022/08/12 12:21:38;;;;;;;3.45;1.42;;;;;;;;;;5025144;28;20213;-36
2022/08/12 12:24:06;;;;;;;4.22;1.38;;;;;;;;;;5014913;28;20210;-33
2022/08/12 12:26:33;;;;;;;1.88;1.77;;;;;;;;;;5033481;28;20216;-39
2022/08/12 12:29:01;;;;;;;1.63;1.52;;;;;;;;;;5033694;28;20209;-38
2022/08/12 12:31:28;;;;;;;1.63;1.40;;;;;;;;;;5025426;28;20220;-37
2022/08/12 12:33:55;;;;;;;1.65;1.30;;;;;;;;;;5024111;28;20216;-39
2022/08/12 12:36:23;;;;;;;1.40;1.30;;;;;;;;;;5026935;28;20213;-39
2022/08/12 12:38:50;;;;;;;1.77;1.20;;;;;;;;;;5013664;28;20207;-39
2022/08/12 12:41:18;;;;;;;3.83;1.48;;;;;;;;;;5019058;28;20210;-38
2022/08/12 12:43:45;;;;;;;2.78;1.30;;;;;;;;;;5035530;28;20286;-40
2022/08/12 12:46:13;;;;;;;1.30;1.10;;;;;;;;;;5116841;22;20233;-32
2022/08/12 12:48:41;;;;;;;3.17;1.08;;;;;;;;;;5042414;28;20231;-32
2022/08/12 12:51:17;;;;;;;1.27;1.08;;;;;;;;;;5051849;28;20211;-30
2022/08/12 12:53:48;;;;;;;2.65;1.23;;;;;;;;;;5025804;28;20205;-31
2022/08/12 12:56:16;;;;;;;1.80;1.40;;;;;;;;;;5043789;28;20194;-33
2022/08/12 12:58:43;;;;;;;2.13;1.30;;;;;;;;;;5036509;28;20206;-32
2022/08/12 13:01:12;;;;;;;1.67;1.38;;;;;;;;;;5153175;22;20230;-36
2022/08/12 13:03:41;;;;;;;1.42;1.08;;;;;;;;;;5070173;28;20208;-41
2022/08/12 13:06:08;;;;;;;1.60;1.30;;;;;;;;;;5070646;28;20225;-36
2022/08/12 13:08:35;;;;;;;4.53;1.10;;;;;;;;;;5047770;28;20230;-39
2022/08/12 13:11:03;;;;;;;2.50;1.20;;;;;;;;;;5050343;28;20206;-42
2022/08/12 13:13:31;;;;;;;1.73;1.63;;;;;;;;;;5052539;28;20198;-37
2022/08/12 13:16:00;;;;;;;2.85;1.45;;;;;;;;;;5043276;28;20209;-40
2022/08/12 13:18:35;;;;;;;3.40;1.23;;;;;;;;;;5048739;28;20291;-37
2022/08/12 13:21:04;;;;;;;2.05;0.95;;;;;;;;;;5049770;28;20204;-43
2022/08/12 13:23:31;;;;;;;1.20;1.20;;;;;;;;;;5049063;28;20209;-38
2022/08/12 13:25:58;;;;;;;2.35;1.48;;;;;;;;;;5051837;28;20224;-38
2022/08/12 13:28:27;;;;;;;2.15;1.33;;;;;;;;;;5052447;28;20233;-36
2022/08/12 13:30:56;;;;;;;1.30;1.20;;;;;;;;;;5047258;28;20292;-39
2022/08/12 13:33:24;;;;;;;1.77;1.20;;;;;;;;;;5046139;28;20234;-41
2022/08/12 13:35:53;;;;;;;1.40;1.30;;;;;;;;;;5050261;28;20202;-35
2022/08/12 13:38:27;;;;;;;1.88;1.40;;;;;;;;;;5041497;28;20284;-40
2022/08/12 13:40:57;;;;;;;2.28;0.90;;;;;;;;;;5049476;28;20216;-35
2022/08/12 13:43:24;;;;;;;3.90;1.25;;;;;;;;;;5054549;28;20202;-43
2022/08/12 13:45:51;;;;;;;1.63;1.35;;;;;;;;;;5043118;28;20228;-42
2022/08/12 13:48:18;;;;;;;1.00;1.00;;;;;;;;;;5042917;28;20234;-40
2022/08/12 13:50:45;;;;;;;2.72;1.40;;;;;;;;;;5033164;28;20301;-43
2022/08/12 13:53:14;;;;;;;3.85;1.30;;;;;;;;;;5042074;28;20209;-38
2022/08/12 13:55:44;;;;;;;1.08;1.00;;;;;;;;;;5051418;28;20204;-41
2022/08/12 13:58:15;;;;;;;1.40;1.30;;;;;;;;;;5046635;28;20232;-41
2022/08/12 14:00:44;;;;;;;1.83;1.08;;;;;;;;;;5047672;28;20210;-41
2022/08/12 14:03:13;;;;;;;3.00;1.13;;;;;;;;;;5052513;28;20206;-42
2022/08/12 14:05:40;;;;;;;1.63;1.30;;;;;;;;;;5051108;28;20224;-39
2022/08/12 14:08:10;;;;;;;3.13;1.30;;;;;;;;;;5043266;28;20229;-39
2022/08/12 14:10:39;;;;;;;1.40;1.30;;;;;;;;;;5051130;28;20202;-38
2022/08/12 14:13:12;;;;;;;1.10;1.05;;;;;;;;;;5051032;28;20285;-34
2022/08/12 14:18:11;;;;;;;1.40;1.30;;;;;;;;;;4999224;28;20307;-40
2022/08/12 14:20:39;;;;;;;2.35;1.20;;;;;;;;;;4994949;28;20214;-37
2022/08/12 14:23:06;;;;;;;3.55;1.20;;;;;;;;;;5002738;28;20222;-39
2022/08/12 14:25:34;;;;;;;2.85;1.20;;;;;;;;;;5008131;28;20227;-38
2022/08/12 14:28:05;;;;;;;1.02;1.02;;;;;;;;;;4998360;28;20250;-38
2022/08/12 14:30:34;;;;;;;2.60;1.10;;;;;;;;;;5008520;28;20217;-38
2022/08/12 14:33:02;;;;;;;5.00;1.20;;;;;;;;;;5013425;28;20203;-35
2022/08/12 14:35:35;;;;;;;3.33;1.10;;;;;;;;;;5010064;28;20203;-42
2022/08/12 14:38:12;;;;;;;1.00;1.00;;;;;;;;;;5001940;28;20227;-38
2022/08/12 14:40:40;;;;;;;1.10;1.00;;;;;;;;;;5005199;28;20556;-36
2022/08/12 14:43:07;;;;;;;1.40;1.25;;;;;;;;;;5013355;28;20245;-40
2022/08/12 14:45:36;;;;;;;1.02;0.95;;;;;;;;;;5008280;28;20220;-38
2022/08/12 14:48:03;;;;;;;1.52;1.00;;;;;;;;;;4990928;28;20235;-36
2022/08/12 14:50:30;;;;;;;2.35;1.10;;;;;;;;;;5004318;28;20219;-40
2022/08/12 14:52:58;;;;;;;2.83;1.13;;;;;;;;;;5003456;28;20215;-35
2022/08/12 14:55:32;;;;;;;3.50;1.13;;;;;;;;;;5002706;28;20614;-36
2022/08/12 14:58:00;;;;;;;1.73;1.23;;;;;;;;;;5007641;28;20284;-34
2022/08/12 15:03:14;;;;;;;0.90;0.90;;;;;;;;;;5004479;28;20216;-39
2022/08/12 15:05:42;;;;;;;2.42;1.30;;;;;;;;;;4993905;28;20230;-36
2022/08/12 15:08:11;;;;;;;2.50;1.20;;;;;;;;;;4994041;28;20269;-38
2022/08/12 15:10:42;;;;;;;1.25;1.10;;;;;;;;;;4984886;28;20211;-40
2022/08/12 15:13:09;;;;;;;1.27;1.17;;;;;;;;;;4995000;28;20227;-40
2022/08/12 15:15:41;;;;;;;1.70;0.90;;;;;;;;;;4998761;28;20217;-34
2022/08/12 15:18:08;;;;;;;1.38;1.08;;;;;;;;;;4992359;28;20236;-40
2022/08/12 15:20:38;;;;;;;1.02;1.00;;;;;;;;;;4993126;28;20213;-36
2022/08/12 15:23:05;;;;;;;2.33;1.23;;;;;;;;;;4994515;28;20203;-37
2022/08/12 15:25:33;;;;;;;6.43;1.60;;;;;;;;;;5004919;28;20234;-38
2022/08/12 15:28:00;;;;;;;1.67;0.88;;;;;;;;;;4991622;28;20230;-38
2022/08/12 15:30:27;;;;;;;2.13;0.90;;;;;;;;;;4991890;28;20212;-40
2022/08/12 15:32:55;;;;;;;2.90;0.98;;;;;;;;;;5008338;28;20214;-38
2022/08/12 15:35:22;;;;;;;2.58;1.00;;;;;;;;;;5010129;28;20206;-36
2022/08/12 15:38:01;;;;;;;2.17;0.85;;;;;;;;;;4994100;28;20234;-41
2022/08/12 15:40:29;;;;;;;2.17;1.10;;;;;;;;;;5001010;28;20264;-39
2022/08/12 15:42:58;;;;;;;2.40;1.00;;;;;;;;;;5012028;28;20203;-37
2022/08/12 15:45:25;;;;;;;1.02;1.02;;;;;;;;;;5003263;28;20459;-39
2022/08/12 15:47:52;;;;;;;1.10;1.00;;;;;;;;;;4996447;28;20241;-41
2022/08/12 15:50:20;;;;;;;1.52;0.80;;;;;;;;;;5000202;28;20200;-39
2022/08/12 15:52:47;;;;;;;3.60;0.85;;;;;;;;;;4994240;28;20229;-39
2022/08/12 15:55:16;;;;;;;1.13;0.98;;;;;;;;;;4991640;28;20345;-39
2022/08/12 15:57:52;;;;;;;1.40;0.85;;;;;;;;;;5005105;28;20235;-36
2022/08/12 16:00:19;;;;;;;1.42;0.80;;;;;;;;;;5009983;28;20241;-40
2022/08/12 16:02:47;;;;;;;1.77;1.00;;;;;;;;;;4997076;28;20226;-38
2022/08/12 16:05:17;;;;;;;0.82;0.75;;;;;;;;;;5008732;28;20217;-38
2022/08/12 16:07:45;;;;;;;1.00;0.73;;;;;;;;;;5000455;28;20227;-39
2022/08/12 16:10:12;;;;;;;1.42;0.95;;;;;;;;;;5001690;28;20216;-32
2022/08/12 16:12:42;;;;;;;0.80;0.80;;;;;;;;;;4995259;28;20196;-36
2022/08/12 16:15:10;;;;;;;0.93;0.70;;;;;;;;;;4988907;28;20235;-40
2022/08/12 16:17:39;;;;;;;1.60;0.90;;;;;;;;;;4997933;28;20234;-41
2022/08/12 16:20:10;;;;;;;2.80;1.27;;;;;;;;;;4991767;28;20339;-41
2022/08/12 16:22:37;;;;;;;1.70;1.60;;;;;;;;;;5005836;28;20226;-39
2022/08/12 16:25:05;;;;;;;0.80;0.80;;;;;;;;;;5001639;28;20210;-39
2022/08/12 16:27:32;;;;;;;0.73;0.73;;;;;;;;;;5006419;28;20460;-34
2022/08/12 16:30:01;;;;;;;1.38;0.98;;;;;;;;;;5000358;28;20209;-35
2022/08/12 16:32:28;;;;;;;0.85;0.85;;;;;;;;;;4999053;28;20604;-37
2022/08/12 16:34:55;;;;;;;2.05;0.98;;;;;;;;;;4999743;28;20206;-39
2022/08/12 16:37:23;;;;;;;0.85;0.85;;;;;;;;;;4994710;28;20226;-38
2022/08/12 16:39:51;;;;;;;0.85;0.70;;;;;;;;;;5000204;28;20305;-40
2022/08/12 16:42:21;;;;;;;1.38;0.80;;;;;;;;;;5001908;28;20245;-42
2022/08/12 16:44:49;;;;;;;0.70;0.70;;;;;;;;;;4994379;28;20253;-37
2022/08/12 16:47:18;;;;;;;0.93;0.80;;;;;;;;;;4998621;28;20242;-36
2022/08/12 16:49:45;;;;;;;1.98;0.90;;;;;;;;;;5013177;28;20270;-37
2022/08/12 16:52:13;;;;;;;0.63;0.63;;;;;;;;;;5008500;28;20218;-37